createdAt,value
2023-05-20T00:01:42.519Z,40.30
2023-05-20T00:04:09.570Z,45.00
2023-05-20T00:06:36.656Z,58.60
2023-05-20T00:09:03.764Z,83.80
2023-05-20T00:11:31.469Z,99.90
2023-05-20T00:13:58.415Z,99.90
2023-05-20T00:16:25.530Z,99.90
2023-05-20T00:18:52.581Z,99.90
2023-05-20T00:21:19.660Z,99.90
2023-05-20T00:23:46.607Z,99.90
2023-05-20T00:26:13.640Z,99.90
2023-05-20T00:28:40.609Z,96.20
2023-05-20T00:31:07.599Z,98.30
2023-05-20T00:33:36.373Z,97.40
2023-05-20T00:36:03.431Z,92.70
2023-05-20T00:38:30.515Z,69.50
2023-05-20T00:40:57.422Z,61.30
2023-05-20T00:43:25.559Z,58.70
2023-05-20T00:45:54.217Z,60.10
2023-05-20T00:48:22.164Z,54.80
2023-05-20T00:50:50.587Z,55.20
2023-05-20T00:53:21.448Z,59.30
2023-05-20T00:55:48.711Z,55.60
2023-05-20T00:58:15.898Z,50.50
2023-05-20T01:00:43.407Z,48.70
2023-05-20T01:03:11.053Z,50.80
2023-05-20T01:05:39.924Z,47.00
2023-05-20T01:08:09.220Z,41.70
2023-05-20T01:10:46.681Z,34.00
2023-05-20T01:13:17.519Z,51.20
2023-05-20T01:15:48.441Z,26.50
2023-05-20T01:18:18.415Z,23.50
2023-05-20T01:20:49.814Z,20.60
2023-05-20T01:23:17.349Z,25.10
2023-05-20T01:25:44.334Z,20.80
2023-05-20T01:28:17.884Z,31.20
2023-05-20T01:30:52.666Z,32.20
2023-05-20T01:33:22.008Z,51.30
2023-05-20T01:35:49.173Z,28.90
2023-05-20T01:38:17.953Z,38.10
2023-05-20T01:40:46.344Z,34.10
2023-05-20T01:43:16.226Z,33.40
2023-05-20T01:45:45.011Z,34.70
2023-05-20T01:48:12.465Z,42.60
2023-05-20T01:50:39.736Z,34.40
2023-05-20T01:53:09.613Z,29.40
2023-05-20T01:55:36.631Z,6.80
2023-05-20T01:58:03.799Z,8.20
2023-05-20T02:00:34.149Z,6.80
2023-05-20T02:03:01.651Z,3.10
2023-05-20T02:05:28.614Z,6.50
2023-05-20T02:07:55.726Z,17.50
2023-05-20T02:10:22.647Z,15.10
2023-05-20T02:12:49.664Z,1.00
2023-05-20T02:15:16.645Z,1.00
2023-05-20T02:17:47.201Z,1.00
2023-05-20T02:20:14.223Z,1.00
2023-05-20T02:22:41.377Z,1.00
2023-05-20T02:25:09.477Z,1.00
2023-05-20T02:27:36.528Z,1.00
2023-05-20T02:30:03.560Z,1.00
2023-05-20T02:32:30.594Z,1.00
2023-05-20T02:34:57.581Z,1.00
2023-05-20T02:37:24.598Z,1.00
2023-05-20T02:39:51.669Z,1.00
2023-05-20T02:42:18.667Z,1.00
2023-05-20T02:44:45.633Z,1.70
2023-05-20T02:47:12.569Z,1.00
2023-05-20T02:49:39.535Z,1.00
2023-05-20T02:52:06.826Z,1.00
2023-05-20T02:54:34.062Z,1.00
2023-05-20T02:57:01.032Z,2.40
2023-05-20T02:59:27.975Z,13.70
2023-05-20T03:01:54.977Z,13.20
2023-05-20T03:04:22.111Z,10.60
2023-05-20T03:06:49.155Z,1.50
2023-05-20T03:09:16.105Z,1.00
2023-05-20T03:11:43.194Z,1.00
2023-05-20T03:14:10.136Z,1.00
2023-05-20T03:16:37.149Z,1.00
2023-05-20T03:19:04.119Z,1.00
2023-05-20T03:21:31.169Z,1.00
2023-05-20T03:23:58.094Z,1.00
2023-05-20T03:26:25.822Z,1.00
2023-05-20T03:28:52.800Z,1.00
2023-05-20T03:31:20.125Z,1.00
2023-05-20T03:33:47.135Z,1.00
2023-05-20T03:36:14.258Z,1.00
2023-05-20T03:38:41.449Z,1.00
2023-05-20T03:41:08.519Z,1.00
2023-05-20T03:43:35.690Z,1.00
2023-05-20T03:46:02.685Z,1.00
2023-05-20T03:48:29.692Z,1.00
2023-05-20T03:50:56.604Z,1.00
2023-05-20T03:53:23.613Z,1.00
2023-05-20T03:55:50.705Z,1.00
2023-05-20T03:58:17.680Z,99.90
2023-05-20T04:00:44.681Z,99.90
2023-05-20T04:03:11.852Z,99.90
2023-05-20T04:05:39.258Z,1.00
2023-05-20T04:08:06.195Z,99.90
2023-05-20T04:10:33.856Z,99.90
2023-05-20T04:13:00.791Z,1.00
2023-05-20T04:15:29.868Z,99.90
2023-05-20T04:17:57.015Z,99.90
2023-05-20T04:20:24.574Z,99.90
2023-05-20T04:22:52.473Z,99.90
2023-05-20T04:25:19.762Z,99.90
2023-05-20T04:27:46.822Z,99.90
2023-05-20T04:30:14.192Z,99.90
2023-05-20T04:32:41.735Z,99.90
2023-05-20T04:35:11.870Z,99.90
2023-05-20T04:37:42.563Z,99.90
2023-05-20T04:40:10.796Z,99.90
2023-05-20T04:42:37.953Z,99.90
2023-05-20T04:45:06.073Z,99.90
2023-05-20T04:47:39.301Z,99.90
2023-05-20T04:50:10.947Z,99.90
2023-05-20T04:52:46.268Z,99.90
2023-05-20T04:55:13.746Z,99.90
2023-05-20T04:57:42.192Z,99.90
2023-05-20T05:00:11.501Z,99.90
2023-05-20T05:02:39.073Z,99.90
2023-05-20T05:05:06.862Z,99.90
2023-05-20T05:07:33.875Z,99.90
2023-05-20T05:10:01.406Z,99.90
2023-05-20T05:12:28.554Z,99.90
2023-05-20T05:14:55.466Z,99.90
2023-05-20T05:17:22.442Z,99.90
2023-05-20T05:19:49.479Z,99.90
2023-05-20T05:22:16.632Z,99.90
2023-05-20T05:24:43.560Z,99.90
2023-05-20T05:27:10.623Z,99.90
2023-05-20T05:29:37.602Z,99.90
2023-05-20T05:32:04.904Z,99.90
2023-05-20T05:34:31.852Z,99.90
2023-05-20T05:36:58.886Z,99.90
2023-05-20T05:39:25.799Z,99.90
2023-05-20T05:41:54.306Z,99.90
2023-05-20T05:44:21.256Z,99.90
2023-05-20T05:46:48.264Z,99.90
2023-05-20T05:49:15.325Z,99.90
2023-05-20T05:51:42.335Z,99.90
2023-05-20T05:54:09.390Z,99.90
2023-05-20T05:56:36.308Z,99.90
2023-05-20T05:59:04.726Z,99.90
2023-05-20T06:01:31.805Z,99.90
2023-05-20T06:03:58.928Z,99.90
2023-05-20T06:06:26.436Z,99.90
2023-05-20T06:08:53.374Z,99.90
2023-05-20T06:11:20.978Z,99.90
2023-05-20T06:13:47.923Z,99.90
2023-05-20T06:16:14.911Z,99.90
2023-05-20T06:18:41.953Z,99.90
2023-05-20T06:21:09.247Z,99.90
2023-05-20T06:23:36.210Z,99.90
2023-05-20T06:26:03.737Z,99.90
2023-05-20T06:28:31.350Z,99.90
2023-05-20T06:30:58.379Z,99.90
2023-05-20T06:33:26.329Z,99.90
2023-05-20T06:35:54.054Z,99.90
2023-05-20T06:38:21.311Z,99.90
2023-05-20T06:40:51.534Z,99.90
2023-05-20T06:43:18.679Z,99.90
2023-05-20T06:45:45.869Z,99.90
2023-05-20T06:48:12.862Z,99.90
2023-05-20T06:50:39.942Z,99.90
2023-05-20T06:53:06.904Z,99.90
2023-05-20T06:55:33.974Z,99.90
2023-05-20T06:58:01.088Z,99.90
2023-05-20T07:00:28.060Z,99.90
2023-05-20T07:02:55.105Z,99.90
2023-05-20T07:05:22.133Z,99.90
2023-05-20T07:07:49.130Z,99.90
2023-05-20T07:10:16.127Z,99.90
2023-05-20T07:12:43.088Z,99.90
2023-05-20T07:15:10.509Z,99.90
2023-05-20T07:17:37.570Z,99.90
2023-05-20T07:20:05.009Z,99.90
2023-05-20T07:22:32.179Z,99.90
2023-05-20T07:25:00.403Z,99.90
2023-05-20T07:27:27.523Z,99.90
2023-05-20T07:29:54.551Z,99.90
2023-05-20T07:32:21.644Z,99.90
2023-05-20T07:34:48.630Z,99.90
2023-05-20T07:37:16.315Z,99.90
2023-05-20T07:39:43.345Z,99.90
2023-05-20T07:42:10.491Z,99.90
2023-05-20T07:44:37.495Z,99.90
2023-05-20T07:47:04.887Z,99.90
2023-05-20T07:49:31.814Z,99.90
2023-05-20T07:52:00.436Z,99.90
2023-05-20T07:54:29.068Z,99.90
2023-05-20T07:56:56.009Z,99.90
2023-05-20T07:59:23.232Z,99.90
2023-05-20T08:01:50.229Z,99.90
2023-05-20T08:04:17.389Z,99.90
2023-05-20T08:06:44.693Z,99.90
2023-05-20T08:09:11.917Z,99.90
2023-05-20T08:11:38.881Z,99.90
2023-05-20T08:14:06.381Z,99.90
2023-05-20T08:16:33.427Z,99.90
2023-05-20T08:19:00.630Z,99.90
2023-05-20T08:25:15.368Z,99.90
2023-05-20T08:27:42.345Z,99.90
2023-05-20T08:30:10.094Z,99.90
2023-05-20T08:32:37.646Z,99.90
2023-05-20T08:35:05.513Z,99.90
2023-05-20T08:37:32.700Z,99.90
2023-05-20T08:39:59.670Z,99.90
2023-05-20T08:42:29.222Z,99.90
2023-05-20T08:44:57.573Z,99.90
2023-05-20T08:47:24.830Z,99.90
2023-05-20T08:49:51.856Z,99.90
2023-05-20T08:52:21.770Z,99.90
2023-05-20T08:54:50.239Z,99.90
2023-05-20T08:57:17.907Z,99.90
2023-05-20T08:59:51.266Z,99.90
2023-05-20T09:02:18.237Z,99.90
2023-05-20T09:04:45.396Z,99.90
2023-05-20T09:07:12.450Z,99.90
2023-05-20T09:09:39.491Z,99.90
2023-05-20T09:12:06.954Z,99.90
2023-05-20T09:14:33.902Z,99.90
2023-05-20T09:17:00.857Z,99.90
2023-05-20T09:19:28.114Z,99.90
2023-05-20T09:21:55.496Z,99.90
2023-05-20T09:24:26.732Z,99.90
2023-05-20T09:26:54.112Z,99.90
2023-05-20T09:29:22.006Z,99.90
2023-05-20T09:31:50.296Z,99.90
2023-05-20T09:34:18.007Z,99.90
2023-05-20T09:36:45.676Z,99.90
2023-05-20T09:39:19.317Z,99.90
2023-05-20T09:41:56.853Z,99.90
2023-05-20T09:44:24.106Z,99.90
2023-05-20T09:46:53.411Z,99.90
2023-05-20T09:49:23.711Z,99.90
2023-05-20T09:51:52.023Z,99.90
2023-05-20T09:54:19.984Z,99.90
2023-05-20T09:56:48.253Z,99.90
2023-05-20T09:59:21.789Z,99.90
2023-05-20T10:01:48.945Z,99.90
2023-05-20T10:04:17.478Z,99.90
2023-05-20T10:07:12.889Z,99.90
2023-05-20T10:10:17.375Z,99.90
2023-05-20T10:12:56.467Z,99.90
2023-05-20T10:15:30.923Z,99.90
2023-05-20T10:18:09.953Z,99.90
2023-05-20T10:20:47.402Z,99.90
2023-05-20T10:23:25.120Z,99.90
2023-05-20T10:25:53.789Z,99.90
2023-05-20T10:28:33.164Z,99.90
2023-05-20T10:31:01.001Z,99.90
2023-05-20T10:33:28.637Z,99.90
2023-05-20T10:36:02.735Z,99.90
2023-05-20T10:42:16.319Z,99.90
2023-05-20T10:44:45.017Z,99.90
2023-05-20T10:49:48.317Z,99.90
2023-05-20T10:52:16.994Z,99.90
2023-05-20T10:54:51.559Z,99.90
2023-05-20T10:57:19.109Z,1.00
2023-05-20T10:59:47.659Z,99.90
2023-05-20T11:02:17.150Z,99.90
2023-05-20T11:04:45.108Z,99.90
2023-05-20T11:07:12.230Z,99.90
2023-05-20T11:09:39.621Z,99.90
2023-05-20T11:12:07.009Z,99.90
2023-05-20T11:14:35.302Z,99.90
2023-05-20T11:17:02.485Z,99.90
2023-05-20T11:19:29.590Z,99.90
2023-05-20T11:21:56.764Z,99.90
2023-05-20T11:24:28.416Z,99.90
2023-05-20T11:26:57.677Z,99.90
2023-05-20T11:29:27.090Z,99.90
2023-05-20T11:31:54.040Z,99.90
2023-05-20T11:34:26.877Z,99.90
2023-05-20T11:36:59.058Z,99.90
2023-05-20T11:39:29.793Z,99.90
2023-05-20T11:41:57.686Z,99.90
2023-05-20T11:44:24.941Z,99.90
2023-05-20T11:46:52.266Z,99.90
2023-05-20T11:49:19.250Z,99.90
2023-05-20T11:51:46.256Z,99.90
2023-05-20T11:54:13.205Z,99.90
2023-05-20T11:56:43.221Z,99.90
2023-05-20T11:59:11.056Z,99.90
2023-05-20T12:01:45.982Z,99.90
2023-05-20T12:04:17.711Z,99.90
2023-05-20T12:06:44.830Z,99.90
2023-05-20T12:09:12.094Z,99.90
2023-05-20T12:11:41.662Z,99.90
2023-05-20T12:14:09.733Z,99.90
2023-05-20T12:16:38.017Z,99.90
2023-05-20T12:19:05.514Z,99.90
2023-05-20T12:21:32.597Z,99.90
2023-05-20T12:24:00.232Z,99.90
2023-05-20T12:26:29.054Z,99.90
2023-05-20T12:28:56.827Z,99.90
2023-05-20T12:31:24.580Z,99.90
2023-05-20T12:33:51.669Z,99.90
2023-05-20T12:36:19.875Z,99.90
2023-05-20T12:38:47.914Z,99.90
2023-05-20T12:41:14.840Z,99.90
2023-05-20T12:43:41.855Z,99.90
2023-05-20T12:46:08.917Z,99.90
2023-05-20T12:48:37.036Z,99.90
2023-05-20T12:51:04.246Z,99.90
2023-05-20T12:53:31.249Z,99.90
2023-05-20T12:55:58.241Z,99.90
2023-05-20T12:58:25.195Z,99.90
2023-05-20T13:00:52.221Z,99.90
2023-05-20T13:03:19.319Z,99.90
2023-05-20T13:05:46.355Z,99.90
2023-05-20T13:08:14.985Z,99.90
2023-05-20T13:10:42.153Z,99.90
2023-05-20T13:13:09.177Z,99.90
2023-05-20T13:15:36.968Z,99.90
2023-05-20T13:18:06.808Z,99.90
2023-05-20T13:20:34.166Z,99.90
2023-05-20T13:23:01.276Z,99.90
2023-05-20T13:25:28.295Z,99.90
2023-05-20T13:27:55.927Z,99.90
2023-05-20T13:30:23.276Z,99.90
2023-05-20T13:32:50.334Z,99.90
2023-05-20T13:35:17.609Z,99.90
2023-05-20T13:37:44.908Z,99.90
2023-05-20T13:40:12.458Z,99.90
2023-05-20T13:42:39.445Z,99.90
2023-05-20T13:45:07.091Z,99.90
2023-05-20T13:47:34.104Z,99.90
2023-05-20T13:50:03.095Z,99.90
2023-05-20T13:52:30.401Z,99.90
2023-05-20T13:54:57.394Z,99.90
2023-05-20T13:57:24.349Z,99.90
2023-05-20T13:59:51.352Z,99.90
2023-05-20T14:02:18.749Z,99.90
2023-05-20T14:04:47.161Z,99.90
2023-05-20T14:07:14.322Z,99.90
2023-05-20T14:09:41.467Z,99.90
2023-05-20T14:12:08.726Z,99.90
2023-05-20T14:14:35.775Z,99.90
2023-05-20T14:17:02.775Z,99.90
2023-05-20T14:19:30.221Z,99.90
2023-05-20T14:21:59.001Z,99.90
2023-05-20T14:24:25.959Z,99.90
2023-05-20T14:26:53.426Z,99.90
2023-05-20T14:29:20.560Z,99.90
2023-05-20T14:31:47.618Z,99.90
2023-05-20T14:34:14.625Z,97.90
2023-05-20T14:36:41.630Z,99.50
2023-05-20T14:39:08.613Z,99.90
2023-05-20T14:41:35.562Z,99.90
2023-05-20T14:44:02.518Z,99.90
2023-05-20T14:46:29.524Z,99.90
2023-05-20T14:48:56.569Z,99.90
2023-05-20T14:51:23.520Z,99.90
2023-05-20T14:53:50.653Z,99.90
2023-05-20T14:56:17.703Z,99.90
2023-05-20T14:58:44.681Z,99.90
2023-05-20T15:01:11.681Z,99.90
2023-05-20T15:03:38.760Z,99.80
2023-05-20T15:06:06.322Z,99.00
2023-05-20T15:08:33.277Z,99.90
2023-05-20T15:11:00.313Z,98.80
2023-05-20T15:13:27.273Z,99.30
2023-05-20T15:15:54.317Z,98.40
2023-05-20T15:18:21.324Z,98.80
2023-05-20T15:20:48.276Z,98.50
2023-05-20T15:23:17.242Z,98.70
2023-05-20T15:25:44.431Z,98.20
2023-05-20T15:28:11.365Z,97.70
2023-05-20T15:30:38.453Z,95.80
2023-05-20T15:33:05.587Z,95.50
2023-05-20T15:35:32.688Z,95.60
2023-05-20T15:37:59.727Z,95.80
2023-05-20T15:40:26.768Z,95.90
2023-05-20T15:42:53.717Z,97.10
2023-05-20T15:45:21.059Z,98.20
2023-05-20T15:47:48.137Z,99.90
2023-05-20T15:50:15.105Z,99.90
2023-05-20T15:52:42.101Z,99.90
2023-05-20T15:55:10.150Z,99.90
2023-05-20T15:57:37.166Z,99.90
2023-05-20T16:00:07.137Z,99.90
2023-05-20T16:02:36.233Z,99.90
2023-05-20T16:05:04.417Z,98.90
2023-05-20T16:07:31.497Z,98.90
2023-05-20T16:09:58.526Z,99.50
2023-05-20T16:12:25.496Z,99.90
2023-05-20T16:14:52.460Z,99.90
2023-05-20T16:17:21.478Z,99.90
2023-05-20T16:19:49.169Z,99.90
2023-05-20T16:22:17.967Z,99.90
2023-05-20T16:24:45.211Z,99.90
2023-05-20T16:27:12.224Z,99.90
2023-05-20T16:29:42.037Z,99.90
2023-05-20T16:32:09.033Z,99.90
2023-05-20T16:34:36.038Z,99.90
2023-05-20T16:37:02.990Z,99.90
2023-05-20T16:39:30.126Z,99.90
2023-05-20T16:41:57.085Z,99.90
2023-05-20T16:44:24.087Z,99.90
2023-05-20T16:46:53.370Z,99.90
2023-05-20T16:49:21.343Z,99.90
2023-05-20T16:51:48.497Z,99.90
2023-05-20T16:54:15.490Z,99.90
2023-05-20T16:56:42.451Z,99.90
2023-05-20T16:59:09.435Z,99.90
2023-05-20T17:01:37.099Z,99.90
2023-05-20T17:04:04.320Z,99.90
2023-05-20T17:06:34.373Z,99.90
2023-05-20T17:09:04.121Z,99.90
2023-05-20T17:11:31.163Z,99.90
2023-05-20T17:13:58.100Z,99.90
2023-05-20T17:16:25.242Z,99.90
2023-05-20T17:18:53.639Z,99.90
2023-05-20T17:21:20.836Z,99.90
2023-05-20T17:23:47.849Z,99.90
2023-05-20T17:26:15.530Z,99.90
2023-05-20T17:28:43.076Z,99.90
2023-05-20T17:31:10.176Z,99.90
2023-05-20T17:33:37.247Z,99.90
2023-05-20T17:36:04.601Z,99.90
2023-05-20T17:38:31.574Z,99.90
2023-05-20T17:40:58.464Z,99.90
2023-05-20T17:43:25.730Z,99.90
2023-05-20T17:45:52.788Z,99.90
2023-05-20T17:48:20.036Z,99.90
2023-05-20T17:50:47.069Z,99.90
2023-05-20T17:53:14.230Z,99.90
2023-05-20T17:55:41.184Z,99.90
2023-05-20T17:58:08.165Z,99.90
2023-05-20T18:00:42.248Z,99.90
2023-05-20T18:03:10.484Z,99.90
2023-05-20T18:05:38.092Z,99.90
2023-05-20T18:08:05.348Z,99.90
2023-05-20T18:10:32.521Z,99.90
2023-05-20T18:12:59.755Z,99.90
2023-05-20T18:15:26.743Z,99.90
2023-05-20T18:17:54.347Z,99.90
2023-05-20T18:20:21.774Z,99.90
2023-05-20T18:22:50.626Z,99.90
2023-05-20T18:25:17.865Z,99.90
2023-05-20T18:27:44.836Z,99.90
2023-05-20T18:30:11.838Z,99.90
2023-05-20T18:32:39.303Z,99.90
2023-05-20T18:35:06.905Z,99.90
2023-05-20T18:37:34.000Z,99.90
2023-05-20T18:40:01.075Z,99.90
2023-05-20T18:42:28.121Z,99.90
2023-05-20T18:44:55.235Z,99.90
2023-05-20T18:47:22.294Z,99.90
2023-05-20T18:53:30.051Z,99.90
2023-05-20T18:56:01.347Z,99.90
2023-05-20T19:02:09.256Z,99.90
2023-05-20T19:04:36.209Z,99.90
2023-05-20T19:07:03.783Z,99.90
2023-05-20T19:09:30.834Z,99.90
2023-05-20T19:11:59.182Z,99.90
2023-05-20T19:14:26.407Z,99.90
2023-05-20T19:16:53.580Z,99.90
2023-05-20T19:19:20.716Z,99.90
2023-05-20T19:21:48.228Z,99.90
2023-05-20T19:24:15.448Z,99.90
2023-05-20T19:26:42.455Z,99.90
2023-05-20T19:29:09.491Z,99.90
2023-05-20T19:31:37.172Z,99.90
2023-05-20T19:34:04.131Z,99.90
2023-05-20T19:36:31.257Z,99.90
2023-05-20T19:38:58.564Z,99.90
2023-05-20T19:41:26.179Z,99.90
2023-05-20T19:43:53.142Z,99.90
2023-05-20T19:46:20.185Z,99.90
2023-05-20T19:48:47.198Z,99.90
2023-05-20T19:51:14.146Z,1.00
2023-05-20T19:53:41.075Z,99.90
2023-05-20T19:56:08.195Z,99.90
2023-05-20T19:58:35.398Z,99.90
2023-05-20T20:01:02.782Z,99.90
2023-05-20T20:03:29.753Z,99.90
2023-05-20T20:05:57.273Z,99.90
2023-05-20T20:08:24.402Z,99.90
2023-05-20T20:10:51.486Z,99.90
2023-05-20T20:13:18.494Z,53.40
2023-05-20T20:15:45.627Z,1.00
2023-05-20T20:18:12.623Z,1.00
2023-05-20T20:20:42.721Z,1.00
2023-05-20T20:23:10.330Z,99.90
2023-05-20T20:25:39.178Z,1.00
2023-05-20T20:28:07.465Z,1.00
2023-05-20T20:30:35.317Z,99.90
2023-05-20T20:33:06.368Z,99.90
2023-05-20T20:35:34.225Z,99.90
2023-05-20T20:38:08.486Z,99.90
2023-05-20T20:40:39.648Z,99.90
2023-05-20T20:43:07.097Z,99.90
2023-05-20T20:45:36.922Z,99.90
2023-05-20T20:48:08.403Z,99.90
2023-05-20T20:50:36.646Z,1.00
2023-05-20T20:53:03.678Z,1.00
2023-05-20T20:55:30.815Z,1.00
2023-05-20T20:57:58.419Z,1.00
2023-05-20T21:00:27.052Z,1.00
2023-05-20T21:02:54.086Z,1.00
2023-05-20T21:05:21.720Z,1.00
2023-05-20T21:07:52.673Z,1.00
2023-05-20T21:10:19.727Z,1.00
2023-05-20T21:12:46.698Z,1.00
2023-05-20T21:15:15.152Z,1.00
2023-05-20T21:17:42.253Z,1.00
2023-05-20T21:20:09.928Z,1.00
2023-05-20T21:22:36.943Z,1.00
2023-05-20T21:25:04.220Z,1.00
2023-05-20T21:27:31.217Z,1.00
2023-05-20T21:29:58.188Z,1.00
2023-05-20T21:32:25.253Z,1.00
2023-05-20T21:34:52.234Z,1.00
2023-05-20T21:37:19.217Z,1.00
2023-05-20T21:39:46.228Z,1.00
2023-05-20T21:42:13.411Z,1.00
2023-05-20T21:44:40.357Z,1.00
2023-05-20T21:47:07.291Z,1.00
2023-05-20T21:49:34.283Z,1.00
2023-05-20T21:52:01.263Z,10.80
2023-05-20T21:54:28.329Z,7.10
2023-05-20T21:56:55.377Z,10.20
2023-05-20T21:59:22.334Z,10.30
2023-05-20T22:01:51.004Z,12.20
2023-05-20T22:04:19.018Z,11.20
2023-05-20T22:06:45.946Z,10.40
2023-05-20T22:09:12.941Z,13.60
2023-05-20T22:11:39.889Z,24.10
2023-05-20T22:14:06.840Z,25.00
2023-05-20T22:16:34.290Z,20.40
2023-05-20T22:19:02.755Z,19.00
2023-05-20T22:21:32.087Z,17.80
2023-05-20T22:24:01.265Z,28.90
2023-05-20T22:26:28.564Z,32.90
2023-05-20T22:28:55.545Z,31.70
2023-05-20T22:31:22.544Z,33.60
2023-05-20T22:33:49.672Z,41.50
2023-05-20T22:36:16.616Z,38.70
2023-05-20T22:38:43.591Z,39.10
2023-05-20T22:41:10.916Z,38.40
2023-05-20T22:43:37.885Z,37.30
2023-05-20T22:46:04.869Z,51.60
2023-05-20T22:48:31.905Z,51.30
2023-05-20T22:50:58.875Z,50.70
2023-05-20T22:53:25.815Z,53.20
2023-05-20T22:55:52.978Z,53.70
2023-05-20T22:58:19.883Z,51.20
2023-05-20T23:00:46.956Z,48.00
2023-05-20T23:03:13.972Z,48.90
2023-05-20T23:05:41.117Z,56.20
2023-05-20T23:08:08.126Z,61.60
2023-05-20T23:10:35.226Z,62.20
2023-05-20T23:13:02.276Z,67.20
2023-05-20T23:15:31.170Z,68.50
2023-05-20T23:17:58.786Z,79.50
2023-05-20T23:20:25.901Z,77.90
2023-05-20T23:22:52.956Z,79.00
2023-05-20T23:25:20.094Z,80.80
2023-05-20T23:27:47.080Z,81.40
2023-05-20T23:30:14.294Z,81.70
2023-05-20T23:32:41.578Z,83.00
2023-05-20T23:35:11.765Z,84.80
2023-05-20T23:37:39.076Z,86.10
2023-05-20T23:40:09.210Z,88.70
2023-05-20T23:42:36.937Z,89.90
2023-05-20T23:45:04.719Z,90.90
2023-05-20T23:47:32.303Z,91.20
2023-05-20T23:50:00.042Z,91.80
2023-05-20T23:52:27.117Z,93.30
2023-05-20T23:54:54.230Z,94.60
2023-05-20T23:57:21.257Z,95.40
2023-05-20T23:59:51.428Z,98.90
